sensor_id;sensor_type;location;lat;lon;timestamp;temperature;humidity
15638;DHT22;26604;53.596;10.042;2022-10-28T00:01:18;21.10;24.70
15638;DHT22;26604;53.596;10.042;2022-10-28T00:03:46;21.10;24.60
15638;DHT22;26604;53.596;10.042;2022-10-28T00:06:21;21.10;24.50
15638;DHT22;26604;53.596;10.042;2022-10-28T00:08:48;21.10;24.40
15638;DHT22;26604;53.596;10.042;2022-10-28T00:11:17;21.10;24.60
15638;DHT22;26604;53.596;10.042;2022-10-28T00:13:44;21.10;24.10
15638;DHT22;26604;53.596;10.042;2022-10-28T00:16:14;21.10;23.90
15638;DHT22;26604;53.596;10.042;2022-10-28T00:18:42;21.10;23.80
15638;DHT22;26604;53.596;10.042;2022-10-28T00:21:11;21.10;23.70
15638;DHT22;26604;53.596;10.042;2022-10-28T00:23:39;21.10;23.60
15638;DHT22;26604;53.596;10.042;2022-10-28T00:26:08;21.10;23.50
15638;DHT22;26604;53.596;10.042;2022-10-28T00:28:39;21.10;23.40
15638;DHT22;26604;53.596;10.042;2022-10-28T00:31:07;21.10;23.20
15638;DHT22;26604;53.596;10.042;2022-10-28T00:33:35;21.10;23.10
15638;DHT22;26604;53.596;10.042;2022-10-28T00:36:13;21.10;23.00
15638;DHT22;26604;53.596;10.042;2022-10-28T00:38:43;21.10;22.90
15638;DHT22;26604;53.596;10.042;2022-10-28T00:41:11;21.10;22.80
15638;DHT22;26604;53.596;10.042;2022-10-28T00:43:42;21.10;22.70
15638;DHT22;26604;53.596;10.042;2022-10-28T00:46:24;21.10;22.50
15638;DHT22;26604;53.596;10.042;2022-10-28T00:48:55;21.10;22.40
15638;DHT22;26604;53.596;10.042;2022-10-28T00:51:24;21.10;22.30
15638;DHT22;26604;53.596;10.042;2022-10-28T00:53:54;21.10;22.20
15638;DHT22;26604;53.596;10.042;2022-10-28T00:56:23;21.10;22.10
15638;DHT22;26604;53.596;10.042;2022-10-28T00:58:54;21.10;21.90
15638;DHT22;26604;53.596;10.042;2022-10-28T01:01:21;21.10;21.90
15638;DHT22;26604;53.596;10.042;2022-10-28T01:03:48;21.10;21.80
15638;DHT22;26604;53.596;10.042;2022-10-28T01:06:15;21.10;21.60
15638;DHT22;26604;53.596;10.042;2022-10-28T01:08:42;21.10;21.60
15638;DHT22;26604;53.596;10.042;2022-10-28T01:11:26;21.10;21.40
15638;DHT22;26604;53.596;10.042;2022-10-28T01:14:15;21.10;21.70
15638;DHT22;26604;53.596;10.042;2022-10-28T01:16:54;21.10;21.10
15638;DHT22;26604;53.596;10.042;2022-10-28T01:19:44;21.10;21.00
15638;DHT22;26604;53.596;10.042;2022-10-28T01:22:19;21.10;20.80
15638;DHT22;26604;53.596;10.042;2022-10-28T01:25:14;21.10;20.70
15638;DHT22;26604;53.596;10.042;2022-10-28T01:28:00;21.10;20.60
15638;DHT22;26604;53.596;10.042;2022-10-28T01:30:41;21.10;20.40
15638;DHT22;26604;53.596;10.042;2022-10-28T01:33:17;21.10;20.30
15638;DHT22;26604;53.596;10.042;2022-10-28T01:35:51;21.10;20.10
15638;DHT22;26604;53.596;10.042;2022-10-28T01:38:27;21.10;20.00
15638;DHT22;26604;53.596;10.042;2022-10-28T01:41:01;21.10;19.90
15638;DHT22;26604;53.596;10.042;2022-10-28T01:43:37;21.10;19.80
15638;DHT22;26604;53.596;10.042;2022-10-28T01:46:11;21.10;19.70
15638;DHT22;26604;53.596;10.042;2022-10-28T01:48:43;21.10;19.60
15638;DHT22;26604;53.596;10.042;2022-10-28T01:51:15;21.10;19.50
15638;DHT22;26604;53.596;10.042;2022-10-28T01:53:48;21.10;19.40
15638;DHT22;26604;53.596;10.042;2022-10-28T01:56:20;21.10;19.20
15638;DHT22;26604;53.596;10.042;2022-10-28T01:58:49;21.10;19.50
15638;DHT22;26604;53.596;10.042;2022-10-28T02:01:19;21.10;18.90
15638;DHT22;26604;53.596;10.042;2022-10-28T02:03:48;21.10;18.80
15638;DHT22;26604;53.596;10.042;2022-10-28T02:06:19;21.10;18.80
15638;DHT22;26604;53.596;10.042;2022-10-28T02:09:05;21.10;18.60
15638;DHT22;26604;53.596;10.042;2022-10-28T02:11:55;21.10;18.50
15638;DHT22;26604;53.596;10.042;2022-10-28T02:14:36;21.10;18.30
15638;DHT22;26604;53.596;10.042;2022-10-28T02:17:09;21.10;18.20
15638;DHT22;26604;53.596;10.042;2022-10-28T02:19:49;21.10;18.00
15638;DHT22;26604;53.596;10.042;2022-10-28T02:22:20;21.10;17.90
15638;DHT22;26604;53.596;10.042;2022-10-28T02:24:54;21.10;17.80
15638;DHT22;26604;53.596;10.042;2022-10-28T02:27:30;21.10;17.70
15638;DHT22;26604;53.596;10.042;2022-10-28T02:30:03;21.00;17.60
15638;DHT22;26604;53.596;10.042;2022-10-28T02:32:34;21.10;17.50
15638;DHT22;26604;53.596;10.042;2022-10-28T02:35:08;21.10;17.40
15638;DHT22;26604;53.596;10.042;2022-10-28T02:37:39;21.10;17.40
15638;DHT22;26604;53.596;10.042;2022-10-28T02:40:10;21.10;17.20
15638;DHT22;26604;53.596;10.042;2022-10-28T02:42:41;21.10;17.20
15638;DHT22;26604;53.596;10.042;2022-10-28T02:45:13;21.10;17.10
15638;DHT22;26604;53.596;10.042;2022-10-28T02:47:45;21.00;17.00
15638;DHT22;26604;53.596;10.042;2022-10-28T02:50:16;21.10;17.00
15638;DHT22;26604;53.596;10.042;2022-10-28T02:52:49;21.10;16.80
15638;DHT22;26604;53.596;10.042;2022-10-28T02:55:19;21.00;16.80
15638;DHT22;26604;53.596;10.042;2022-10-28T02:57:47;21.10;16.70
15638;DHT22;26604;53.596;10.042;2022-10-28T03:00:16;21.00;16.60
15638;DHT22;26604;53.596;10.042;2022-10-28T03:02:43;21.00;16.60
15638;DHT22;26604;53.596;10.042;2022-10-28T03:05:10;21.10;16.50
15638;DHT22;26604;53.596;10.042;2022-10-28T03:07:40;21.00;16.40
15638;DHT22;26604;53.596;10.042;2022-10-28T03:10:07;21.00;16.30
15638;DHT22;26604;53.596;10.042;2022-10-28T03:12:34;21.00;16.30
15638;DHT22;26604;53.596;10.042;2022-10-28T03:15:02;21.00;16.20
15638;DHT22;26604;53.596;10.042;2022-10-28T03:17:29;21.00;16.10
15638;DHT22;26604;53.596;10.042;2022-10-28T03:19:56;21.00;16.00
15638;DHT22;26604;53.596;10.042;2022-10-28T03:22:23;21.00;16.20
15638;DHT22;26604;53.596;10.042;2022-10-28T03:24:51;21.00;15.70
15638;DHT22;26604;53.596;10.042;2022-10-28T03:27:18;21.00;15.60
15638;DHT22;26604;53.596;10.042;2022-10-28T03:29:44;21.00;15.50
15638;DHT22;26604;53.596;10.042;2022-10-28T03:32:11;21.00;15.40
15638;DHT22;26604;53.596;10.042;2022-10-28T03:34:38;21.00;15.40
15638;DHT22;26604;53.596;10.042;2022-10-28T03:37:05;21.00;15.30
15638;DHT22;26604;53.596;10.042;2022-10-28T03:39:32;20.50;15.00
15638;DHT22;26604;53.596;10.042;2022-10-28T03:42:00;21.00;15.40
15638;DHT22;26604;53.596;10.042;2022-10-28T03:44:27;21.10;15.00
15638;DHT22;26604;53.596;10.042;2022-10-28T03:46:54;21.00;14.90
15638;DHT22;26604;53.596;10.042;2022-10-28T03:49:21;21.00;14.80
15638;DHT22;26604;53.596;10.042;2022-10-28T03:51:47;21.00;14.70
15638;DHT22;26604;53.596;10.042;2022-10-28T03:54:14;21.00;14.60
15638;DHT22;26604;53.596;10.042;2022-10-28T03:56:41;21.00;14.50
15638;DHT22;26604;53.596;10.042;2022-10-28T03:59:10;21.00;14.40
15638;DHT22;26604;53.596;10.042;2022-10-28T04:01:37;21.00;14.30
15638;DHT22;26604;53.596;10.042;2022-10-28T04:04:04;21.00;14.30
15638;DHT22;26604;53.596;10.042;2022-10-28T04:06:31;21.00;14.20
15638;DHT22;26604;53.596;10.042;2022-10-28T04:08:58;21.00;14.10
15638;DHT22;26604;53.596;10.042;2022-10-28T04:11:24;21.00;14.00
15638;DHT22;26604;53.596;10.042;2022-10-28T04:13:51;21.00;13.90
15638;DHT22;26604;53.596;10.042;2022-10-28T04:16:19;21.00;13.90
15638;DHT22;26604;53.596;10.042;2022-10-28T04:18:46;21.00;13.90
15638;DHT22;26604;53.596;10.042;2022-10-28T04:21:13;21.00;13.90
15638;DHT22;26604;53.596;10.042;2022-10-28T04:23:40;21.00;13.90
15638;DHT22;26604;53.596;10.042;2022-10-28T04:26:07;21.00;14.20
15638;DHT22;26604;53.596;10.042;2022-10-28T04:28:34;21.00;13.80
15638;DHT22;26604;53.596;10.042;2022-10-28T04:31:00;21.00;13.70
15638;DHT22;26604;53.596;10.042;2022-10-28T04:33:29;21.00;13.70
15638;DHT22;26604;53.596;10.042;2022-10-28T04:35:56;21.00;13.60
15638;DHT22;26604;53.596;10.042;2022-10-28T04:38:23;21.00;13.60
15638;DHT22;26604;53.596;10.042;2022-10-28T04:40:50;21.00;13.50
15638;DHT22;26604;53.596;10.042;2022-10-28T04:43:16;21.00;13.40
15638;DHT22;26604;53.596;10.042;2022-10-28T04:45:44;21.00;13.40
15638;DHT22;26604;53.596;10.042;2022-10-28T04:48:12;21.00;13.40
15638;DHT22;26604;53.596;10.042;2022-10-28T04:50:40;21.00;13.40
15638;DHT22;26604;53.596;10.042;2022-10-28T04:53:07;21.00;13.50
15638;DHT22;26604;53.596;10.042;2022-10-28T04:55:34;21.00;13.50
15638;DHT22;26604;53.596;10.042;2022-10-28T04:58:00;21.00;13.50
15638;DHT22;26604;53.596;10.042;2022-10-28T05:00:28;21.00;13.50
15638;DHT22;26604;53.596;10.042;2022-10-28T05:02:55;21.00;13.50
15638;DHT22;26604;53.596;10.042;2022-10-28T05:05:22;21.00;13.40
15638;DHT22;26604;53.596;10.042;2022-10-28T05:07:51;21.00;13.40
15638;DHT22;26604;53.596;10.042;2022-10-28T05:10:18;21.00;13.70
15638;DHT22;26604;53.596;10.042;2022-10-28T05:12:45;21.00;13.30
15638;DHT22;26604;53.596;10.042;2022-10-28T05:15:13;21.00;13.20
15638;DHT22;26604;53.596;10.042;2022-10-28T05:17:41;21.00;13.20
15638;DHT22;26604;53.596;10.042;2022-10-28T05:20:09;21.00;13.10
15638;DHT22;26604;53.596;10.042;2022-10-28T05:22:36;21.00;13.10
15638;DHT22;26604;53.596;10.042;2022-10-28T05:25:05;21.00;13.10
15638;DHT22;26604;53.596;10.042;2022-10-28T05:27:32;21.00;13.00
15638;DHT22;26604;53.596;10.042;2022-10-28T05:29:59;21.00;13.40
15638;DHT22;26604;53.596;10.042;2022-10-28T05:32:26;21.00;12.90
15638;DHT22;26604;53.596;10.042;2022-10-28T05:34:52;21.00;12.90
15638;DHT22;26604;53.596;10.042;2022-10-28T05:37:19;21.00;12.90
15638;DHT22;26604;53.596;10.042;2022-10-28T05:39:46;21.00;12.80
15638;DHT22;26604;53.596;10.042;2022-10-28T05:42:14;21.00;12.70
15638;DHT22;26604;53.596;10.042;2022-10-28T05:44:41;21.00;12.70
15638;DHT22;26604;53.596;10.042;2022-10-28T05:47:08;21.00;12.80
15638;DHT22;26604;53.596;10.042;2022-10-28T05:49:35;21.00;13.10
15638;DHT22;26604;53.596;10.042;2022-10-28T05:52:03;21.00;12.70
15638;DHT22;26604;53.596;10.042;2022-10-28T05:54:30;21.00;12.80
15638;DHT22;26604;53.596;10.042;2022-10-28T05:56:57;21.00;12.70
15638;DHT22;26604;53.596;10.042;2022-10-28T05:59:25;21.00;12.70
15638;DHT22;26604;53.596;10.042;2022-10-28T06:01:52;21.00;13.30
15638;DHT22;26604;53.596;10.042;2022-10-28T06:04:19;21.00;13.10
15638;DHT22;26604;53.596;10.042;2022-10-28T06:06:45;21.00;13.20
15638;DHT22;26604;53.596;10.042;2022-10-28T06:09:12;21.00;13.30
15638;DHT22;26604;53.596;10.042;2022-10-28T06:11:39;21.00;13.40
15638;DHT22;26604;53.596;10.042;2022-10-28T06:14:06;21.00;13.40
15638;DHT22;26604;53.596;10.042;2022-10-28T06:16:34;21.00;13.40
15638;DHT22;26604;53.596;10.042;2022-10-28T06:19:01;21.00;13.40
15638;DHT22;26604;53.596;10.042;2022-10-28T06:21:28;21.00;13.50
15638;DHT22;26604;53.596;10.042;2022-10-28T06:23:55;21.00;13.50
15638;DHT22;26604;53.596;10.042;2022-10-28T06:26:22;21.00;13.50
15638;DHT22;26604;53.596;10.042;2022-10-28T06:28:48;21.00;13.40
15638;DHT22;26604;53.596;10.042;2022-10-28T06:31:15;21.00;13.30
15638;DHT22;26604;53.596;10.042;2022-10-28T06:33:43;21.00;13.20
15638;DHT22;26604;53.596;10.042;2022-10-28T06:36:10;21.00;11.80
15638;DHT22;26604;53.596;10.042;2022-10-28T06:38:37;21.00;9.70
15638;DHT22;26604;53.596;10.042;2022-10-28T06:41:04;21.10;11.80
15638;DHT22;26604;53.596;10.042;2022-10-28T06:43:31;21.20;12.50
15638;DHT22;26604;53.596;10.042;2022-10-28T06:46:01;21.30;12.10
15638;DHT22;26604;53.596;10.042;2022-10-28T06:48:28;21.40;11.60
15638;DHT22;26604;53.596;10.042;2022-10-28T06:50:56;21.50;11.50
15638;DHT22;26604;53.596;10.042;2022-10-28T06:53:23;21.60;10.60
15638;DHT22;26604;53.596;10.042;2022-10-28T06:55:54;21.60;10.20
15638;DHT22;26604;53.596;10.042;2022-10-28T06:58:21;21.60;9.60
15638;DHT22;26604;53.596;10.042;2022-10-28T07:00:48;21.60;8.60
15638;DHT22;26604;53.596;10.042;2022-10-28T07:03:15;21.60;8.70
15638;DHT22;26604;53.596;10.042;2022-10-28T07:05:43;21.60;9.00
15638;DHT22;26604;53.596;10.042;2022-10-28T07:08:12;21.60;9.20
15638;DHT22;26604;53.596;10.042;2022-10-28T07:10:40;21.60;9.50
15638;DHT22;26604;53.596;10.042;2022-10-28T07:13:06;21.60;9.90
15638;DHT22;26604;53.596;10.042;2022-10-28T07:15:33;21.50;10.40
15638;DHT22;26604;53.596;10.042;2022-10-28T07:18:00;21.50;11.10
15638;DHT22;26604;53.596;10.042;2022-10-28T07:20:27;21.50;11.20
15638;DHT22;26604;53.596;10.042;2022-10-28T07:22:57;21.50;11.70
15638;DHT22;26604;53.596;10.042;2022-10-28T07:25:27;21.50;12.00
15638;DHT22;26604;53.596;10.042;2022-10-28T07:27:55;21.50;12.40
15638;DHT22;26604;53.596;10.042;2022-10-28T07:30:22;21.50;12.80
15638;DHT22;26604;53.596;10.042;2022-10-28T07:32:49;21.50;13.20
15638;DHT22;26604;53.596;10.042;2022-10-28T07:35:16;21.40;13.70
15638;DHT22;26604;53.596;10.042;2022-10-28T07:37:43;21.40;14.30
15638;DHT22;26604;53.596;10.042;2022-10-28T07:40:10;21.40;15.00
15638;DHT22;26604;53.596;10.042;2022-10-28T07:42:38;21.40;15.70
15638;DHT22;26604;53.596;10.042;2022-10-28T07:45:06;21.40;16.10
15638;DHT22;26604;53.596;10.042;2022-10-28T07:47:33;21.40;16.40
15638;DHT22;26604;53.596;10.042;2022-10-28T07:50:00;21.40;16.70
15638;DHT22;26604;53.596;10.042;2022-10-28T07:52:27;21.40;17.00
15638;DHT22;26604;53.596;10.042;2022-10-28T07:54:54;21.40;17.30
15638;DHT22;26604;53.596;10.042;2022-10-28T07:57:20;21.30;17.70
15638;DHT22;26604;53.596;10.042;2022-10-28T07:59:49;21.30;17.90
15638;DHT22;26604;53.596;10.042;2022-10-28T08:02:17;21.30;18.20
15638;DHT22;26604;53.596;10.042;2022-10-28T08:04:44;21.30;18.80
15638;DHT22;26604;53.596;10.042;2022-10-28T08:07:11;21.30;18.70
15638;DHT22;26604;53.596;10.042;2022-10-28T08:09:39;21.30;19.30
15638;DHT22;26604;53.596;10.042;2022-10-28T08:12:06;21.30;19.00
15638;DHT22;26604;53.596;10.042;2022-10-28T08:14:34;21.30;19.20
15638;DHT22;26604;53.596;10.042;2022-10-28T08:17:02;21.30;19.40
15638;DHT22;26604;53.596;10.042;2022-10-28T08:19:29;21.30;19.90
15638;DHT22;26604;53.596;10.042;2022-10-28T08:21:57;21.30;19.60
15638;DHT22;26604;53.596;10.042;2022-10-28T08:24:24;21.30;20.10
15638;DHT22;26604;53.596;10.042;2022-10-28T08:26:51;21.30;19.70
15638;DHT22;26604;53.596;10.042;2022-10-28T08:29:18;21.30;19.70
15638;DHT22;26604;53.596;10.042;2022-10-28T08:31:45;21.30;19.70
15638;DHT22;26604;53.596;10.042;2022-10-28T08:34:13;21.30;20.00
15638;DHT22;26604;53.596;10.042;2022-10-28T08:36:40;21.30;19.70
15638;DHT22;26604;53.596;10.042;2022-10-28T08:39:07;21.30;19.70
15638;DHT22;26604;53.596;10.042;2022-10-28T08:41:37;21.30;20.20
15638;DHT22;26604;53.596;10.042;2022-10-28T08:44:45;21.30;19.80
15638;DHT22;26604;53.596;10.042;2022-10-28T08:47:31;21.30;19.80
15638;DHT22;26604;53.596;10.042;2022-10-28T08:50:09;21.30;20.20
15638;DHT22;26604;53.596;10.042;2022-10-28T08:52:42;21.30;19.80
15638;DHT22;26604;53.596;10.042;2022-10-28T08:55:15;21.30;19.90
15638;DHT22;26604;53.596;10.042;2022-10-28T08:57:48;21.30;20.00
15638;DHT22;26604;53.596;10.042;2022-10-28T09:00:19;21.30;20.20
15638;DHT22;26604;53.596;10.042;2022-10-28T09:03:01;21.30;20.20
15638;DHT22;26604;53.596;10.042;2022-10-28T09:05:33;21.30;20.30
15638;DHT22;26604;53.596;10.042;2022-10-28T09:08:00;21.30;20.30
15638;DHT22;26604;53.596;10.042;2022-10-28T09:10:41;21.30;20.30
15638;DHT22;26604;53.596;10.042;2022-10-28T09:13:15;21.30;20.40
15638;DHT22;26604;53.596;10.042;2022-10-28T09:15:51;21.30;20.30
15638;DHT22;26604;53.596;10.042;2022-10-28T09:18:24;21.30;20.30
15638;DHT22;26604;53.596;10.042;2022-10-28T09:20:55;21.30;20.20
15638;DHT22;26604;53.596;10.042;2022-10-28T09:23:23;21.30;20.20
15638;DHT22;26604;53.596;10.042;2022-10-28T09:26:03;21.30;20.20
15638;DHT22;26604;53.596;10.042;2022-10-28T09:28:43;21.30;20.20
15638;DHT22;26604;53.596;10.042;2022-10-28T09:31:16;21.30;20.10
15638;DHT22;26604;53.596;10.042;2022-10-28T09:33:53;21.30;20.00
15638;DHT22;26604;53.596;10.042;2022-10-28T09:36:29;21.30;20.00
15638;DHT22;26604;53.596;10.042;2022-10-28T09:38:59;21.30;20.00
15638;DHT22;26604;53.596;10.042;2022-10-28T09:41:30;21.30;20.00
15638;DHT22;26604;53.596;10.042;2022-10-28T09:44:02;21.30;20.00
15638;DHT22;26604;53.596;10.042;2022-10-28T09:46:30;21.30;20.00
15638;DHT22;26604;53.596;10.042;2022-10-28T09:49:01;21.30;19.90
15638;DHT22;26604;53.596;10.042;2022-10-28T09:51:33;21.30;19.90
15638;DHT22;26604;53.596;10.042;2022-10-28T09:54:09;21.30;19.90
15638;DHT22;26604;53.596;10.042;2022-10-28T09:56:36;21.30;19.80
15638;DHT22;26604;53.596;10.042;2022-10-28T09:59:03;21.30;19.80
15638;DHT22;26604;53.596;10.042;2022-10-28T10:01:32;21.30;19.70
15638;DHT22;26604;53.596;10.042;2022-10-28T10:04:00;21.30;19.70
15638;DHT22;26604;53.596;10.042;2022-10-28T10:06:32;21.30;19.70
15638;DHT22;26604;53.596;10.042;2022-10-28T10:09:03;21.30;19.60
15638;DHT22;26604;53.596;10.042;2022-10-28T10:11:33;21.30;19.60
15638;DHT22;26604;53.596;10.042;2022-10-28T10:14:04;21.30;19.60
15638;DHT22;26604;53.596;10.042;2022-10-28T10:16:38;21.30;19.80
15638;DHT22;26604;53.596;10.042;2022-10-28T10:19:08;21.30;19.20
15638;DHT22;26604;53.596;10.042;2022-10-28T10:21:47;21.30;19.10
15638;DHT22;26604;53.596;10.042;2022-10-28T10:24:24;21.20;19.10
15638;DHT22;26604;53.596;10.042;2022-10-28T10:26:52;21.30;19.10
15638;DHT22;26604;53.596;10.042;2022-10-28T10:29:20;21.30;19.00
15638;DHT22;26604;53.596;10.042;2022-10-28T10:31:48;21.30;19.00
15638;DHT22;26604;53.596;10.042;2022-10-28T10:34:28;21.30;19.00
15638;DHT22;26604;53.596;10.042;2022-10-28T10:36:56;21.30;19.00
15638;DHT22;26604;53.596;10.042;2022-10-28T10:39:26;21.30;19.00
15638;DHT22;26604;53.596;10.042;2022-10-28T10:41:54;21.30;19.00
15638;DHT22;26604;53.596;10.042;2022-10-28T10:44:30;21.30;19.40
15638;DHT22;26604;53.596;10.042;2022-10-28T10:47:19;21.30;19.10
15638;DHT22;26604;53.596;10.042;2022-10-28T10:49:47;21.30;19.10
15638;DHT22;26604;53.596;10.042;2022-10-28T10:52:20;21.30;18.90
15638;DHT22;26604;53.596;10.042;2022-10-28T10:54:58;21.30;18.90
15638;DHT22;26604;53.596;10.042;2022-10-28T10:57:27;21.30;18.90
15638;DHT22;26604;53.596;10.042;2022-10-28T10:59:55;21.30;18.90
15638;DHT22;26604;53.596;10.042;2022-10-28T11:02:25;21.30;18.90
15638;DHT22;26604;53.596;10.042;2022-10-28T11:04:55;21.30;18.80
15638;DHT22;26604;53.596;10.042;2022-10-28T11:07:24;21.30;18.90
15638;DHT22;26604;53.596;10.042;2022-10-28T11:09:53;21.30;18.90
15638;DHT22;26604;53.596;10.042;2022-10-28T11:12:26;21.30;18.80
15638;DHT22;26604;53.596;10.042;2022-10-28T11:14:55;21.30;18.80
15638;DHT22;26604;53.596;10.042;2022-10-28T11:17:24;21.30;18.80
15638;DHT22;26604;53.596;10.042;2022-10-28T11:19:53;21.30;18.80
15638;DHT22;26604;53.596;10.042;2022-10-28T11:22:30;21.30;18.70
15638;DHT22;26604;53.596;10.042;2022-10-28T11:25:16;21.30;19.10
15638;DHT22;26604;53.596;10.042;2022-10-28T11:27:55;21.30;18.70
15638;DHT22;26604;53.596;10.042;2022-10-28T11:30:34;21.30;18.60
15638;DHT22;26604;53.596;10.042;2022-10-28T11:33:09;21.40;18.60
15638;DHT22;26604;53.596;10.042;2022-10-28T11:35:49;21.30;18.50
15638;DHT22;26604;53.596;10.042;2022-10-28T11:38:37;21.30;18.60
15638;DHT22;26604;53.596;10.042;2022-10-28T11:41:17;21.30;18.60
15638;DHT22;26604;53.596;10.042;2022-10-28T11:43:50;21.30;18.60
15638;DHT22;26604;53.596;10.042;2022-10-28T11:46:27;21.30;18.70
15638;DHT22;26604;53.596;10.042;2022-10-28T11:49:06;21.40;18.70
15638;DHT22;26604;53.596;10.042;2022-10-28T11:51:39;21.40;18.80
15638;DHT22;26604;53.596;10.042;2022-10-28T11:54:26;21.40;18.70
15638;DHT22;26604;53.596;10.042;2022-10-28T11:56:58;21.40;18.80
15638;DHT22;26604;53.596;10.042;2022-10-28T11:59:51;21.30;18.70
15638;DHT22;26604;53.596;10.042;2022-10-28T12:02:37;21.30;18.70
15638;DHT22;26604;53.596;10.042;2022-10-28T12:05:14;21.30;18.70
15638;DHT22;26604;53.596;10.042;2022-10-28T12:07:55;21.30;18.60
15638;DHT22;26604;53.596;10.042;2022-10-28T12:10:44;21.30;18.70
15638;DHT22;26604;53.596;10.042;2022-10-28T12:13:22;21.30;18.70
15638;DHT22;26604;53.596;10.042;2022-10-28T12:15:55;21.30;18.70
15638;DHT22;26604;53.596;10.042;2022-10-28T12:18:28;21.30;18.70
15638;DHT22;26604;53.596;10.042;2022-10-28T12:21:00;21.30;18.70
15638;DHT22;26604;53.596;10.042;2022-10-28T12:23:31;21.30;18.70
15638;DHT22;26604;53.596;10.042;2022-10-28T12:26:01;21.40;18.70
15638;DHT22;26604;53.596;10.042;2022-10-28T12:28:35;21.30;18.70
15638;DHT22;26604;53.596;10.042;2022-10-28T12:31:06;21.40;19.10
15638;DHT22;26604;53.596;10.042;2022-10-28T12:33:36;21.40;19.10
15638;DHT22;26604;53.596;10.042;2022-10-28T12:36:19;21.40;18.80
15638;DHT22;26604;53.596;10.042;2022-10-28T12:38:52;21.40;18.80
15638;DHT22;26604;53.596;10.042;2022-10-28T12:41:24;21.40;18.80
15638;DHT22;26604;53.596;10.042;2022-10-28T12:43:54;21.40;18.90
15638;DHT22;26604;53.596;10.042;2022-10-28T12:46:29;21.40;19.40
15638;DHT22;26604;53.596;10.042;2022-10-28T12:49:04;21.40;20.40
15638;DHT22;26604;53.596;10.042;2022-10-28T12:51:36;21.40;21.20
15638;DHT22;26604;53.596;10.042;2022-10-28T12:54:13;21.50;21.10
15638;DHT22;26604;53.596;10.042;2022-10-28T12:56:49;21.50;20.80
15638;DHT22;26604;53.596;10.042;2022-10-28T12:59:21;21.50;20.60
15638;DHT22;26604;53.596;10.042;2022-10-28T13:01:51;21.50;20.40
15638;DHT22;26604;53.596;10.042;2022-10-28T13:04:18;21.40;20.10
15638;DHT22;26604;53.596;10.042;2022-10-28T13:07:06;21.40;20.00
15638;DHT22;26604;53.596;10.042;2022-10-28T13:09:50;21.40;20.00
15638;DHT22;26604;53.596;10.042;2022-10-28T13:12:43;21.40;20.00
15638;DHT22;26604;53.596;10.042;2022-10-28T13:18:32;21.40;20.20
15638;DHT22;26604;53.596;10.042;2022-10-28T13:21:10;21.40;19.90
15638;DHT22;26604;53.596;10.042;2022-10-28T13:23:43;21.40;19.90
15638;DHT22;26604;53.596;10.042;2022-10-28T13:26:20;21.40;20.00
15638;DHT22;26604;53.596;10.042;2022-10-28T13:28:50;21.40;20.10
15638;DHT22;26604;53.596;10.042;2022-10-28T13:31:18;21.40;20.10
15638;DHT22;26604;53.596;10.042;2022-10-28T13:33:49;21.40;20.10
15638;DHT22;26604;53.596;10.042;2022-10-28T13:36:19;21.40;20.10
15638;DHT22;26604;53.596;10.042;2022-10-28T13:38:52;21.40;20.20
15638;DHT22;26604;53.596;10.042;2022-10-28T13:41:29;21.50;20.20
15638;DHT22;26604;53.596;10.042;2022-10-28T13:44:13;21.40;20.20
15638;DHT22;26604;53.596;10.042;2022-10-28T13:50:12;21.40;20.30
15638;DHT22;26604;53.596;10.042;2022-10-28T13:52:41;21.40;20.20
15638;DHT22;26604;53.596;10.042;2022-10-28T13:55:20;21.40;20.20
15638;DHT22;26604;53.596;10.042;2022-10-28T13:57:49;21.40;20.20
15638;DHT22;26604;53.596;10.042;2022-10-28T14:00:35;21.40;20.10
15638;DHT22;26604;53.596;10.042;2022-10-28T14:03:03;21.30;20.00
15638;DHT22;26604;53.596;10.042;2022-10-28T14:05:49;21.40;19.90
15638;DHT22;26604;53.596;10.042;2022-10-28T14:08:19;21.30;19.80
15638;DHT22;26604;53.596;10.042;2022-10-28T14:10:58;21.30;19.60
15638;DHT22;26604;53.596;10.042;2022-10-28T14:13:26;21.30;19.40
15638;DHT22;26604;53.596;10.042;2022-10-28T14:18:55;21.30;19.20
15638;DHT22;26604;53.596;10.042;2022-10-28T14:21:23;21.30;18.80
15638;DHT22;26604;53.596;10.042;2022-10-28T14:24:29;21.30;18.80
15638;DHT22;26604;53.596;10.042;2022-10-28T14:27:27;21.30;19.40
15638;DHT22;26604;53.596;10.042;2022-10-28T14:30:20;21.30;19.90
15638;DHT22;26604;53.596;10.042;2022-10-28T14:33:18;21.30;20.20
15638;DHT22;26604;53.596;10.042;2022-10-28T14:35:51;21.30;20.40
15638;DHT22;26604;53.596;10.042;2022-10-28T14:39:04;21.30;20.50
15638;DHT22;26604;53.596;10.042;2022-10-28T14:42:04;21.30;20.60
15638;DHT22;26604;53.596;10.042;2022-10-28T14:44:49;21.30;21.10
15638;DHT22;26604;53.596;10.042;2022-10-28T14:47:38;21.30;20.80
15638;DHT22;26604;53.596;10.042;2022-10-28T14:50:16;21.30;21.00
15638;DHT22;26604;53.596;10.042;2022-10-28T14:52:47;21.30;21.10
15638;DHT22;26604;53.596;10.042;2022-10-28T14:55:21;21.30;21.10
15638;DHT22;26604;53.596;10.042;2022-10-28T14:57:49;21.40;21.20
15638;DHT22;26604;53.596;10.042;2022-10-28T15:00:18;21.30;21.20
15638;DHT22;26604;53.596;10.042;2022-10-28T15:02:46;21.30;21.20
15638;DHT22;26604;53.596;10.042;2022-10-28T15:05:15;21.30;21.30
15638;DHT22;26604;53.596;10.042;2022-10-28T15:07:43;21.30;21.30
15638;DHT22;26604;53.596;10.042;2022-10-28T15:10:16;21.30;21.30
15638;DHT22;26604;53.596;10.042;2022-10-28T15:12:44;21.30;21.30
15638;DHT22;26604;53.596;10.042;2022-10-28T15:15:18;21.30;21.30
15638;DHT22;26604;53.596;10.042;2022-10-28T15:17:45;21.30;21.30
15638;DHT22;26604;53.596;10.042;2022-10-28T15:20:20;21.30;21.30
15638;DHT22;26604;53.596;10.042;2022-10-28T15:22:48;21.30;21.50
15638;DHT22;26604;53.596;10.042;2022-10-28T15:25:17;21.30;21.50
15638;DHT22;26604;53.596;10.042;2022-10-28T15:27:45;21.30;22.00
15638;DHT22;26604;53.596;10.042;2022-10-28T15:30:15;21.30;21.60
15638;DHT22;26604;53.596;10.042;2022-10-28T15:32:43;21.30;21.80
15638;DHT22;26604;53.596;10.042;2022-10-28T15:35:38;21.30;21.80
15638;DHT22;26604;53.596;10.042;2022-10-28T15:38:33;21.30;21.90
15638;DHT22;26604;53.596;10.042;2022-10-28T15:41:37;21.40;22.00
15638;DHT22;26604;53.596;10.042;2022-10-28T15:44:07;21.30;22.00
15638;DHT22;26604;53.596;10.042;2022-10-28T15:46:48;21.30;22.00
15638;DHT22;26604;53.596;10.042;2022-10-28T15:49:33;21.40;22.20
15638;DHT22;26604;53.596;10.042;2022-10-28T15:52:31;21.30;22.30
15638;DHT22;26604;53.596;10.042;2022-10-28T15:55:00;21.30;22.40
15638;DHT22;26604;53.596;10.042;2022-10-28T15:57:30;21.30;22.40